createdAt,value
2022-08-25T00:00:18.186Z,67.17
2022-08-25T00:02:55.455Z,66.12
2022-08-25T00:05:27.703Z,65.44
2022-08-25T00:07:56.888Z,66.99
2022-08-25T00:10:26.131Z,67.59
2022-08-25T00:12:53.712Z,66.38
2022-08-25T00:15:23.695Z,66.76
2022-08-25T00:17:51.927Z,66.11
2022-08-25T00:20:20.178Z,66.82
2022-08-25T00:22:48.903Z,67.05
2022-08-25T00:25:17.496Z,66.38
2022-08-25T00:27:47.530Z,67.19
2022-08-25T00:30:16.863Z,67.12
2022-08-25T00:32:55.404Z,67.27
2022-08-25T00:35:26.819Z,67.82
2022-08-25T00:37:54.481Z,65.64
2022-08-25T00:40:23.549Z,66.86
2022-08-25T00:42:52.603Z,66.59
2022-08-25T00:45:20.196Z,67.97
2022-08-25T00:47:48.089Z,66.43
2022-08-25T00:50:17.260Z,66.95
2022-08-25T00:52:48.959Z,66.30
2022-08-25T00:55:21.727Z,67.00
2022-08-25T00:57:56.975Z,66.16
2022-08-25T01:00:29.028Z,66.82
2022-08-25T01:02:57.894Z,66.69
2022-08-25T01:05:27.534Z,66.50
2022-08-25T01:07:58.578Z,67.37
2022-08-25T01:10:27.872Z,67.82
2022-08-25T01:13:00.932Z,67.00
2022-08-25T01:15:29.274Z,67.66
2022-08-25T01:17:59.753Z,66.46
2022-08-25T01:20:30.972Z,67.72
2022-08-25T01:23:00.619Z,66.75
2022-08-25T01:25:38.980Z,67.13
2022-08-25T01:28:07.278Z,67.22
2022-08-25T01:30:35.576Z,66.88
2022-08-25T01:33:04.934Z,67.16
2022-08-25T01:35:32.837Z,66.92
2022-08-25T01:38:02.448Z,67.71
2022-08-25T01:40:31.272Z,67.91
2022-08-25T01:43:07.491Z,67.05
2022-08-25T01:45:35.608Z,67.83
2022-08-25T01:48:04.393Z,67.07
2022-08-25T01:50:32.309Z,67.73
2022-08-25T01:53:04.913Z,67.42
2022-08-25T01:55:51.395Z,66.98
2022-08-25T01:58:19.372Z,67.34
2022-08-25T02:00:47.881Z,67.69
2022-08-25T02:03:17.600Z,67.23
2022-08-25T02:05:48.096Z,67.43
2022-08-25T02:08:18.236Z,68.00
2022-08-25T02:10:46.386Z,67.62
2022-08-25T02:13:14.410Z,67.71
2022-08-25T02:15:44.416Z,67.78
2022-08-25T02:18:12.848Z,67.47
2022-08-25T02:20:40.653Z,67.72
2022-08-25T02:23:08.472Z,67.60
2022-08-25T02:25:38.142Z,67.23
2022-08-25T02:28:06.768Z,67.29
2022-08-25T02:30:34.607Z,67.17
2022-08-25T02:33:02.253Z,68.12
2022-08-25T02:35:30.283Z,67.80
2022-08-25T02:37:57.856Z,67.52
2022-08-25T02:40:25.557Z,67.93
2022-08-25T02:42:55.461Z,67.60
2022-08-25T02:45:23.072Z,67.88
2022-08-25T02:47:50.814Z,68.00
2022-08-25T02:50:18.606Z,68.61
2022-08-25T02:52:46.310Z,68.15
2022-08-25T02:55:14.641Z,67.88
2022-08-25T02:57:42.848Z,67.65
2022-08-25T03:00:14.051Z,68.38
2022-08-25T03:02:42.353Z,68.34
2022-08-25T03:05:13.026Z,68.05
2022-08-25T03:07:40.937Z,68.12
2022-08-25T03:10:13.689Z,67.57
2022-08-25T03:12:41.938Z,68.79
2022-08-25T03:15:12.947Z,68.36
2022-08-25T03:17:44.421Z,68.61
2022-08-25T03:20:13.896Z,68.78
2022-08-25T03:22:41.486Z,68.47
2022-08-25T03:25:33.578Z,68.13
2022-08-25T03:28:02.029Z,68.63
2022-08-25T03:30:30.989Z,68.69
2022-08-25T03:32:59.933Z,68.62
2022-08-25T03:35:27.893Z,68.50
2022-08-25T03:37:57.108Z,68.09
2022-08-25T03:40:24.943Z,68.72
2022-08-25T03:42:52.932Z,68.72
2022-08-25T03:45:20.926Z,68.33
2022-08-25T03:47:50.228Z,68.89
2022-08-25T03:50:20.648Z,68.55
2022-08-25T03:52:53.791Z,69.00
2022-08-25T03:55:23.176Z,68.40
2022-08-25T03:57:51.713Z,69.18
2022-08-25T04:00:20.057Z,68.99
2022-08-25T04:02:47.942Z,68.58
2022-08-25T04:05:16.251Z,68.69
2022-08-25T04:07:45.467Z,68.93
2022-08-25T04:10:13.518Z,68.93
2022-08-25T04:12:41.764Z,68.50
2022-08-25T04:15:10.881Z,68.85
2022-08-25T04:17:40.757Z,68.71
2022-08-25T04:20:11.328Z,68.73
2022-08-25T04:22:44.915Z,68.31
2022-08-25T04:25:14.929Z,68.49
2022-08-25T04:27:42.594Z,68.85
2022-08-25T04:30:11.719Z,68.40
2022-08-25T04:32:39.300Z,68.95
2022-08-25T04:35:08.176Z,68.67
2022-08-25T04:37:36.001Z,69.10
2022-08-25T04:40:04.835Z,69.21
2022-08-25T04:42:34.242Z,68.72
2022-08-25T04:45:04.018Z,68.95
2022-08-25T04:47:31.569Z,69.74
2022-08-25T04:49:59.231Z,68.97
2022-08-25T04:52:26.782Z,69.70
2022-08-25T04:54:54.464Z,69.24
2022-08-25T04:57:22.038Z,69.60
2022-08-25T04:59:51.187Z,69.56
2022-08-25T05:02:19.508Z,69.39
2022-08-25T05:04:47.184Z,69.26
2022-08-25T05:07:14.851Z,69.83
2022-08-25T05:09:42.582Z,69.68
2022-08-25T05:12:10.558Z,69.66
2022-08-25T05:14:40.259Z,69.30
2022-08-25T05:17:09.857Z,69.98
2022-08-25T05:19:37.546Z,69.55
2022-08-25T05:22:05.581Z,70.28
2022-08-25T05:24:33.262Z,70.13
2022-08-25T05:27:01.162Z,70.03
2022-08-25T05:29:28.752Z,68.33
2022-08-25T05:31:56.676Z,68.13
2022-08-25T05:34:25.853Z,67.23
2022-08-25T05:36:54.720Z,66.59
2022-08-25T05:39:22.358Z,67.09
2022-08-25T05:41:49.976Z,68.68
2022-08-25T05:44:20.832Z,70.27
2022-08-25T05:46:49.183Z,70.39
2022-08-25T05:49:16.746Z,69.83
2022-08-25T05:51:45.762Z,70.07
2022-08-25T05:54:13.369Z,71.02
2022-08-25T05:56:41.161Z,70.19
2022-08-25T05:59:09.569Z,70.62
2022-08-25T06:01:55.016Z,70.73
2022-08-25T06:04:22.678Z,70.05
2022-08-25T06:06:53.847Z,70.26
2022-08-25T06:09:21.953Z,70.14
2022-08-25T06:11:52.937Z,70.22
2022-08-25T06:14:22.726Z,70.03
2022-08-25T06:16:51.565Z,70.94
2022-08-25T06:19:19.603Z,70.11
2022-08-25T06:21:47.152Z,70.41
2022-08-25T06:24:16.351Z,70.43
2022-08-25T06:26:44.277Z,70.98
2022-08-25T06:29:14.165Z,71.19
2022-08-25T06:31:42.451Z,70.10
2022-08-25T06:34:10.699Z,70.46
2022-08-25T06:36:38.256Z,73.00
2022-08-25T06:39:06.018Z,72.32
2022-08-25T06:41:36.707Z,72.91
2022-08-25T06:44:05.966Z,74.78
2022-08-25T06:46:36.578Z,76.45
2022-08-25T06:49:05.939Z,76.53
2022-08-25T06:51:36.273Z,75.80
2022-08-25T06:54:05.121Z,75.93
2022-08-25T06:56:32.970Z,77.53
2022-08-25T06:59:03.517Z,77.82
2022-08-25T07:01:32.288Z,77.24
2022-08-25T07:04:01.819Z,76.76
2022-08-25T07:06:32.908Z,78.25
2022-08-25T07:09:00.776Z,76.16
2022-08-25T07:11:29.206Z,75.55
2022-08-25T07:13:56.823Z,77.97
2022-08-25T07:16:25.791Z,77.73
2022-08-25T07:18:57.613Z,76.22
2022-08-25T07:21:33.436Z,76.86
2022-08-25T07:24:01.698Z,76.21
2022-08-25T07:26:39.421Z,77.27
2022-08-25T07:29:10.537Z,77.10
2022-08-25T07:31:40.189Z,79.46
2022-08-25T07:34:26.557Z,78.76
2022-08-25T07:36:56.890Z,76.78
2022-08-25T07:39:25.367Z,77.10
2022-08-25T07:41:54.116Z,78.48
2022-08-25T07:44:23.657Z,78.23
2022-08-25T07:46:53.758Z,78.58
2022-08-25T07:52:09.768Z,77.97
2022-08-25T07:54:38.448Z,78.12
2022-08-25T07:57:08.336Z,77.94
2022-08-25T07:59:39.946Z,78.79
2022-08-25T08:02:16.050Z,77.52
2022-08-25T08:04:48.472Z,77.36
2022-08-25T08:07:17.770Z,76.96
2022-08-25T08:09:45.850Z,77.61
2022-08-25T08:12:13.531Z,76.79
2022-08-25T08:14:45.047Z,76.74
2022-08-25T08:17:15.217Z,75.63
2022-08-25T08:19:45.313Z,75.74
2022-08-25T08:22:15.617Z,75.21
2022-08-25T08:24:54.745Z,75.85
2022-08-25T08:27:24.737Z,75.44
2022-08-25T08:29:52.365Z,73.76
2022-08-25T08:32:31.421Z,74.35
2022-08-25T08:35:09.180Z,75.29
2022-08-25T08:37:41.985Z,75.75
2022-08-25T08:40:11.472Z,73.21
2022-08-25T08:43:02.421Z,75.38
2022-08-25T08:45:40.480Z,74.22
2022-08-25T08:48:45.746Z,74.50
2022-08-25T08:51:20.726Z,72.43
2022-08-25T08:53:57.220Z,73.75
2022-08-25T08:56:30.660Z,71.44
2022-08-25T08:59:05.639Z,73.27
2022-08-25T09:01:43.558Z,72.34
2022-08-25T09:04:20.970Z,71.52
2022-08-25T09:06:52.186Z,70.40
2022-08-25T09:09:26.309Z,71.72
2022-08-25T09:12:05.897Z,69.15
2022-08-25T09:15:02.759Z,70.15
2022-08-25T09:18:12.140Z,69.15
2022-08-25T09:20:58.901Z,67.59
2022-08-25T09:23:35.692Z,67.72
2022-08-25T09:26:19.107Z,67.30
2022-08-25T09:28:55.149Z,67.03
2022-08-25T09:31:29.867Z,68.62
2022-08-25T09:33:59.418Z,69.45
2022-08-25T09:36:28.924Z,68.08
2022-08-25T09:38:56.726Z,65.13
2022-08-25T09:41:41.843Z,66.23
2022-08-25T09:44:19.355Z,66.54
2022-08-25T09:47:01.668Z,66.49
2022-08-25T09:49:38.755Z,66.00
2022-08-25T09:52:26.326Z,66.55
2022-08-25T09:54:55.474Z,64.65
2022-08-25T09:57:36.172Z,65.33
2022-08-25T10:00:16.185Z,66.90
2022-08-25T10:02:45.867Z,66.09
2022-08-25T10:05:25.881Z,66.27
2022-08-25T10:07:58.207Z,65.94
2022-08-25T10:10:32.426Z,66.08
2022-08-25T10:13:02.037Z,65.66
2022-08-25T10:15:33.177Z,65.26
2022-08-25T10:18:25.742Z,66.06
2022-08-25T10:21:07.681Z,65.98
2022-08-25T10:23:40.805Z,65.89
2022-08-25T10:26:24.232Z,65.06
2022-08-25T10:29:07.351Z,64.38
2022-08-25T10:31:41.416Z,63.48
2022-08-25T10:34:23.075Z,64.58
2022-08-25T10:37:00.962Z,63.27
2022-08-25T10:39:40.619Z,63.19
2022-08-25T10:42:26.408Z,62.06
2022-08-25T10:45:27.017Z,63.78
2022-08-25T10:48:23.108Z,62.82
2022-08-25T10:50:57.376Z,64.20
2022-08-25T10:53:30.151Z,63.34
2022-08-25T10:56:07.590Z,64.24
2022-08-25T10:59:04.596Z,63.17
2022-08-25T11:01:45.159Z,62.86
2022-08-25T11:04:17.229Z,62.93
2022-08-25T11:06:53.094Z,62.89
2022-08-25T11:09:26.672Z,62.98
2022-08-25T11:11:59.480Z,63.53
2022-08-25T11:14:34.660Z,63.95
2022-08-25T11:17:07.295Z,63.63
2022-08-25T11:19:38.719Z,62.92
2022-08-25T11:22:19.319Z,61.74
2022-08-25T11:25:04.191Z,62.68
2022-08-25T11:27:37.901Z,61.03
2022-08-25T11:30:09.423Z,61.19
2022-08-25T11:32:38.772Z,62.12
2022-08-25T11:35:09.636Z,61.86
2022-08-25T11:37:53.922Z,62.33
2022-08-25T11:40:37.112Z,61.15
2022-08-25T11:43:22.669Z,61.15
2022-08-25T11:46:06.404Z,60.29
2022-08-25T11:48:43.533Z,59.83
2022-08-25T11:51:12.987Z,60.75
2022-08-25T11:53:42.525Z,59.35
2022-08-25T11:56:12.668Z,59.87
2022-08-25T11:58:49.793Z,59.76
2022-08-25T12:02:02.607Z,58.97
2022-08-25T12:04:44.828Z,57.37
2022-08-25T12:07:23.207Z,56.98
2022-08-25T12:10:16.368Z,58.04
2022-08-25T12:13:04.796Z,58.14
2022-08-25T12:16:00.822Z,58.05
2022-08-25T12:18:46.083Z,58.47
2022-08-25T12:21:16.362Z,59.08
2022-08-25T12:23:47.119Z,60.21
2022-08-25T12:26:29.048Z,59.92
2022-08-25T12:29:08.463Z,59.26
2022-08-25T12:32:04.340Z,58.83
2022-08-25T12:34:47.827Z,59.63
2022-08-25T12:37:17.856Z,59.35
2022-08-25T12:39:55.632Z,58.96
2022-08-25T12:42:32.337Z,58.44
2022-08-25T12:45:15.848Z,58.18
2022-08-25T12:47:47.479Z,57.67
2022-08-25T12:50:29.188Z,57.89
2022-08-25T12:53:08.278Z,57.51
2022-08-25T12:55:38.345Z,57.09
2022-08-25T12:58:07.691Z,56.90
2022-08-25T13:00:52.702Z,56.61
2022-08-25T13:06:32.188Z,56.58
2022-08-25T13:09:24.005Z,56.96
2022-08-25T13:12:01.504Z,57.10
2022-08-25T13:14:38.472Z,57.19
2022-08-25T13:17:06.885Z,56.61
2022-08-25T13:19:39.058Z,56.56
2022-08-25T13:22:16.549Z,56.11
2022-08-25T13:24:47.508Z,55.80
2022-08-25T13:27:23.196Z,56.37
2022-08-25T13:29:52.905Z,55.80
2022-08-25T13:32:32.036Z,54.54
2022-08-25T13:35:17.526Z,54.72
2022-08-25T13:37:47.426Z,54.58
2022-08-25T13:40:26.756Z,53.85
2022-08-25T13:43:01.153Z,52.64
2022-08-25T13:45:34.724Z,53.25
2022-08-25T13:48:23.145Z,53.91
2022-08-25T13:51:09.019Z,52.84
2022-08-25T13:53:38.555Z,53.93
2022-08-25T13:56:07.505Z,52.47
2022-08-25T13:58:45.012Z,53.01
2022-08-25T14:01:22.829Z,52.98
2022-08-25T14:04:33.036Z,53.97
2022-08-25T14:07:26.401Z,53.74
2022-08-25T14:09:56.535Z,52.65
2022-08-25T14:12:30.374Z,53.63
2022-08-25T14:15:04.576Z,53.38
2022-08-25T14:17:39.583Z,53.03
2022-08-25T14:20:18.250Z,52.76
2022-08-25T14:22:47.306Z,51.26
2022-08-25T14:25:15.802Z,52.38
2022-08-25T14:28:06.839Z,51.20
2022-08-25T14:30:35.806Z,51.18
2022-08-25T14:33:04.976Z,51.23
2022-08-25T14:35:34.594Z,52.47
2022-08-25T14:38:08.347Z,52.15
2022-08-25T14:40:36.136Z,52.43
2022-08-25T14:43:03.842Z,52.33
2022-08-25T14:45:32.805Z,51.35
2022-08-25T14:48:04.267Z,52.11
2022-08-25T14:50:41.231Z,51.72
2022-08-25T14:53:12.798Z,51.91
2022-08-25T14:55:40.796Z,51.16
2022-08-25T14:58:08.709Z,51.93
2022-08-25T15:00:38.419Z,50.25
2022-08-25T15:03:06.206Z,51.31
2022-08-25T15:05:34.200Z,51.22
2022-08-25T15:08:19.737Z,51.03
2022-08-25T15:10:49.954Z,51.00
2022-08-25T15:13:17.635Z,50.82
2022-08-25T15:15:52.323Z,49.49
2022-08-25T15:18:21.531Z,50.52
2022-08-25T15:20:50.085Z,50.37
2022-08-25T15:23:18.423Z,49.88
2022-08-25T15:25:48.065Z,50.12
2022-08-25T15:28:17.695Z,50.17
2022-08-25T15:30:49.412Z,50.37
2022-08-25T15:33:17.330Z,49.75
2022-08-25T15:35:45.635Z,50.33
2022-08-25T15:38:13.441Z,49.89
2022-08-25T15:40:41.191Z,51.34
2022-08-25T15:43:08.918Z,50.68
2022-08-25T15:45:38.258Z,51.23
2022-08-25T15:48:09.484Z,50.78
2022-08-25T15:50:38.595Z,50.66
2022-08-25T15:53:08.378Z,50.68
2022-08-25T15:55:39.538Z,51.10
2022-08-25T15:58:08.689Z,50.83
2022-08-25T16:00:38.681Z,51.08
2022-08-25T16:03:07.973Z,50.97
2022-08-25T16:05:37.314Z,48.67
2022-08-25T16:08:05.805Z,49.14
2022-08-25T16:10:37.901Z,49.68
2022-08-25T16:13:07.024Z,48.95
2022-08-25T16:15:38.982Z,49.16
2022-08-25T16:18:08.300Z,49.54
2022-08-25T16:20:37.405Z,50.39
2022-08-25T16:23:05.413Z,50.95
2022-08-25T16:25:33.309Z,51.58
2022-08-25T16:28:04.410Z,51.99
2022-08-25T16:30:32.019Z,52.05
2022-08-25T16:33:01.163Z,51.82
2022-08-25T16:35:29.486Z,52.52
2022-08-25T16:37:57.366Z,51.66
2022-08-25T16:40:26.506Z,51.76
2022-08-25T16:42:54.829Z,51.71
2022-08-25T16:45:23.005Z,51.59
2022-08-25T16:47:51.281Z,51.53
2022-08-25T16:50:20.523Z,51.84
2022-08-25T16:53:07.899Z,51.48
2022-08-25T16:55:39.010Z,51.37
2022-08-25T16:58:07.711Z,52.15
2022-08-25T17:00:38.024Z,52.25
2022-08-25T17:03:06.746Z,51.71
2022-08-25T17:05:41.843Z,52.82
2022-08-25T17:08:27.426Z,52.29
2022-08-25T17:10:55.107Z,52.48
2022-08-25T17:13:23.129Z,53.58
2022-08-25T17:15:52.317Z,53.39
2022-08-25T17:18:20.519Z,54.09
2022-08-25T17:20:51.278Z,53.66
2022-08-25T17:23:21.149Z,54.00
2022-08-25T17:25:52.049Z,54.66
2022-08-25T17:28:19.652Z,55.01
2022-08-25T17:30:48.903Z,55.84
2022-08-25T17:33:18.051Z,54.99
2022-08-25T17:35:55.780Z,55.49
2022-08-25T17:38:26.437Z,56.36
2022-08-25T17:40:58.995Z,56.55
2022-08-25T17:43:27.774Z,56.92
2022-08-25T17:45:57.392Z,57.49
2022-08-25T17:48:26.279Z,57.22
2022-08-25T17:50:55.843Z,58.13
2022-08-25T17:53:23.451Z,58.96
2022-08-25T17:56:00.238Z,59.20
2022-08-25T17:58:29.228Z,59.49
2022-08-25T18:00:57.260Z,59.43
2022-08-25T18:03:26.600Z,59.15
2022-08-25T18:05:57.211Z,59.70
2022-08-25T18:08:32.327Z,59.81
2022-08-25T18:11:02.975Z,60.12
2022-08-25T18:13:31.674Z,60.26
2022-08-25T18:15:59.516Z,60.46
2022-08-25T18:18:28.002Z,60.69
2022-08-25T18:20:57.224Z,61.59
2022-08-25T18:23:24.815Z,62.05
2022-08-25T18:25:52.541Z,61.88
2022-08-25T18:28:28.763Z,61.36
2022-08-25T18:30:56.812Z,62.00
2022-08-25T18:33:24.531Z,61.97
2022-08-25T18:35:52.171Z,61.58
2022-08-25T18:38:38.632Z,61.93
2022-08-25T18:41:11.557Z,61.98
2022-08-25T18:43:39.612Z,62.18
2022-08-25T18:46:08.210Z,61.98
2022-08-25T18:48:38.394Z,62.28
2022-08-25T18:51:10.555Z,62.20
2022-08-25T18:53:50.244Z,62.23
2022-08-25T18:56:19.302Z,62.34
2022-08-25T18:58:47.476Z,63.16
2022-08-25T19:01:15.955Z,63.04
2022-08-25T19:03:44.352Z,63.27
2022-08-25T19:06:12.078Z,63.41
2022-08-25T19:08:41.874Z,63.77
2022-08-25T19:11:10.752Z,63.08
2022-08-25T19:13:38.579Z,63.81
2022-08-25T19:16:11.848Z,64.03
2022-08-25T19:18:41.620Z,64.20
2022-08-25T19:21:09.988Z,63.93
2022-08-25T19:23:39.042Z,63.94
2022-08-25T19:26:13.790Z,64.06
2022-08-25T19:28:45.584Z,64.35
2022-08-25T19:31:14.307Z,64.39
2022-08-25T19:33:44.669Z,64.36
2022-08-25T19:36:12.865Z,64.37
2022-08-25T19:38:40.521Z,64.71
2022-08-25T19:41:14.099Z,64.72
2022-08-25T19:43:56.488Z,65.14
2022-08-25T19:46:32.602Z,64.72
2022-08-25T19:49:06.488Z,64.43
2022-08-25T19:51:34.962Z,64.81
2022-08-25T19:54:03.256Z,64.97
2022-08-25T19:56:35.127Z,64.85
2022-08-25T19:59:04.541Z,65.48
2022-08-25T20:01:33.233Z,65.20
2022-08-25T20:04:03.490Z,65.26
2022-08-25T20:06:32.106Z,65.37
2022-08-25T20:09:00.631Z,65.80
2022-08-25T20:11:29.152Z,65.39
2022-08-25T20:14:01.648Z,65.56
2022-08-25T20:16:31.490Z,65.65
2022-08-25T20:19:00.025Z,65.01
2022-08-25T20:24:16.460Z,65.59
2022-08-25T20:26:44.164Z,65.61
2022-08-25T20:29:14.137Z,65.39
2022-08-25T20:31:41.807Z,66.13
2022-08-25T20:34:11.382Z,66.38
2022-08-25T20:36:49.847Z,65.73
2022-08-25T20:39:18.375Z,66.61
2022-08-25T20:41:48.315Z,66.17
2022-08-25T20:44:18.141Z,66.05
2022-08-25T20:46:46.164Z,66.42
2022-08-25T20:49:14.583Z,66.08
2022-08-25T20:51:42.865Z,66.19
2022-08-25T20:54:14.077Z,66.06
2022-08-25T20:56:42.607Z,65.72
2022-08-25T20:59:11.603Z,66.80
2022-08-25T21:01:42.398Z,66.23
2022-08-25T21:04:14.522Z,65.93
2022-08-25T21:06:42.660Z,66.37
2022-08-25T21:09:16.048Z,66.37
2022-08-25T21:11:45.072Z,66.21
2022-08-25T21:14:13.317Z,66.16
2022-08-25T21:16:46.433Z,65.71
2022-08-25T21:19:15.938Z,66.85
2022-08-25T21:21:44.299Z,66.98
2022-08-25T21:24:12.662Z,66.09
2022-08-25T21:26:48.550Z,66.11
2022-08-25T21:29:17.350Z,67.04
2022-08-25T21:31:46.597Z,66.91
2022-08-25T21:34:17.106Z,65.80
2022-08-25T21:36:46.843Z,67.48
2022-08-25T21:39:15.420Z,67.23
2022-08-25T21:41:45.092Z,66.92
2022-08-25T21:44:13.852Z,67.40
2022-08-25T21:46:42.267Z,66.45
2022-08-25T21:49:24.063Z,66.52
2022-08-25T21:52:00.067Z,66.94
2022-08-25T21:54:29.427Z,66.62
2022-08-25T21:57:01.107Z,66.38
2022-08-25T21:59:30.709Z,67.19
2022-08-25T22:02:00.631Z,67.22
2022-08-25T22:04:30.597Z,66.53
2022-08-25T22:06:59.220Z,66.97
2022-08-25T22:09:28.557Z,65.96
2022-08-25T22:11:56.933Z,66.93
2022-08-25T22:14:26.729Z,67.86
2022-08-25T22:16:54.872Z,66.45
2022-08-25T22:19:23.379Z,66.74
2022-08-25T22:21:54.314Z,67.21
2022-08-25T22:24:22.524Z,66.98
2022-08-25T22:26:55.525Z,65.90
2022-08-25T22:29:25.137Z,67.16
2022-08-25T22:31:53.359Z,67.99
2022-08-25T22:34:30.536Z,68.30
2022-08-25T22:37:01.598Z,68.37
2022-08-25T22:39:29.894Z,67.74
2022-08-25T22:41:57.716Z,67.48
2022-08-25T22:44:26.523Z,68.43
2022-08-25T22:46:54.606Z,68.12
2022-08-25T22:49:22.362Z,68.31
2022-08-25T22:51:50.929Z,68.58
2022-08-25T22:54:20.042Z,67.73
2022-08-25T22:56:47.628Z,68.18
2022-08-25T22:59:16.186Z,67.54
2022-08-25T23:01:45.175Z,67.16
2022-08-25T23:04:14.677Z,67.37
2022-08-25T23:06:42.955Z,67.48
2022-08-25T23:09:11.662Z,67.25
2022-08-25T23:11:41.138Z,67.76
2022-08-25T23:14:10.250Z,67.45
2022-08-25T23:16:38.758Z,67.87
2022-08-25T23:19:06.495Z,67.92
2022-08-25T23:21:52.990Z,67.40
2022-08-25T23:24:27.503Z,66.94
2022-08-25T23:27:00.695Z,67.68
2022-08-25T23:29:28.714Z,66.69
2022-08-25T23:31:57.600Z,67.10
2022-08-25T23:34:26.043Z,66.94
2022-08-25T23:36:54.442Z,67.52
2022-08-25T23:39:23.475Z,67.27
2022-08-25T23:41:52.398Z,67.18
2022-08-25T23:44:23.220Z,67.33
2022-08-25T23:46:53.741Z,67.64
2022-08-25T23:49:23.503Z,66.81
2022-08-25T23:51:53.095Z,67.21
2022-08-25T23:54:22.352Z,67.34
2022-08-25T23:56:58.872Z,66.75
2022-08-25T23:59:27.793Z,67.24
